sensor_id;sensor_type;location;lat;lon;timestamp;temperature;humidity
3644;DHT22;1838;50.742;7.158;2023-12-20T00:01:22;8.90;99.90
3644;DHT22;1838;50.742;7.158;2023-12-20T00:03:47;8.90;99.90
3644;DHT22;1838;50.742;7.158;2023-12-20T00:06:13;8.80;99.90
3644;DHT22;1838;50.742;7.158;2023-12-20T00:08:38;8.80;99.90
3644;DHT22;1838;50.742;7.158;2023-12-20T00:11:04;8.90;99.90
3644;DHT22;1838;50.742;7.158;2023-12-20T00:13:29;8.80;99.90
3644;DHT22;1838;50.742;7.158;2023-12-20T00:15:55;8.80;99.90
3644;DHT22;1838;50.742;7.158;2023-12-20T00:18:20;8.80;99.90
3644;DHT22;1838;50.742;7.158;2023-12-20T00:20:46;8.80;99.90
3644;DHT22;1838;50.742;7.158;2023-12-20T00:23:11;8.80;99.90
3644;DHT22;1838;50.742;7.158;2023-12-20T00:25:37;8.80;99.90
3644;DHT22;1838;50.742;7.158;2023-12-20T00:28:03;8.80;99.90
3644;DHT22;1838;50.742;7.158;2023-12-20T00:30:28;8.80;99.90
3644;DHT22;1838;50.742;7.158;2023-12-20T00:32:55;8.80;99.90
3644;DHT22;1838;50.742;7.158;2023-12-20T00:35:21;8.80;99.90
3644;DHT22;1838;50.742;7.158;2023-12-20T00:37:46;8.80;99.90
3644;DHT22;1838;50.742;7.158;2023-12-20T00:40:12;8.90;99.90
3644;DHT22;1838;50.742;7.158;2023-12-20T00:42:37;8.80;99.90
3644;DHT22;1838;50.742;7.158;2023-12-20T00:45:03;8.90;99.90
3644;DHT22;1838;50.742;7.158;2023-12-20T00:47:30;9.00;99.90
3644;DHT22;1838;50.742;7.158;2023-12-20T00:49:56;9.00;99.90
3644;DHT22;1838;50.742;7.158;2023-12-20T00:52:21;9.00;99.90
3644;DHT22;1838;50.742;7.158;2023-12-20T00:54:48;9.00;99.90
3644;DHT22;1838;50.742;7.158;2023-12-20T00:57:13;9.00;99.90
3644;DHT22;1838;50.742;7.158;2023-12-20T00:59:39;9.00;99.90
3644;DHT22;1838;50.742;7.158;2023-12-20T01:02:05;9.00;99.90
3644;DHT22;1838;50.742;7.158;2023-12-20T01:04:30;8.90;99.90
3644;DHT22;1838;50.742;7.158;2023-12-20T01:06:56;8.90;99.90
3644;DHT22;1838;50.742;7.158;2023-12-20T01:09:21;8.90;99.90
3644;DHT22;1838;50.742;7.158;2023-12-20T01:11:51;8.90;99.90
3644;DHT22;1838;50.742;7.158;2023-12-20T01:14:17;8.90;99.90
3644;DHT22;1838;50.742;7.158;2023-12-20T01:16:43;8.80;99.90
3644;DHT22;1838;50.742;7.158;2023-12-20T01:19:08;8.80;99.90
3644;DHT22;1838;50.742;7.158;2023-12-20T01:21:34;8.80;99.90
3644;DHT22;1838;50.742;7.158;2023-12-20T01:23:59;8.70;99.90
3644;DHT22;1838;50.742;7.158;2023-12-20T01:26:25;8.70;99.90
3644;DHT22;1838;50.742;7.158;2023-12-20T01:28:50;8.70;99.90
3644;DHT22;1838;50.742;7.158;2023-12-20T01:31:16;8.70;99.90
3644;DHT22;1838;50.742;7.158;2023-12-20T01:33:41;8.60;99.90
3644;DHT22;1838;50.742;7.158;2023-12-20T01:36:07;8.70;99.90
3644;DHT22;1838;50.742;7.158;2023-12-20T01:38:33;8.80;99.90
3644;DHT22;1838;50.742;7.158;2023-12-20T01:40:58;8.70;99.90
3644;DHT22;1838;50.742;7.158;2023-12-20T01:43:24;8.80;99.90
3644;DHT22;1838;50.742;7.158;2023-12-20T01:45:50;8.70;99.90
3644;DHT22;1838;50.742;7.158;2023-12-20T01:48:16;8.70;99.90
3644;DHT22;1838;50.742;7.158;2023-12-20T01:50:44;8.70;99.90
3644;DHT22;1838;50.742;7.158;2023-12-20T01:53:12;8.80;99.90
3644;DHT22;1838;50.742;7.158;2023-12-20T01:55:39;8.80;99.90
3644;DHT22;1838;50.742;7.158;2023-12-20T01:58:06;8.80;99.90
3644;DHT22;1838;50.742;7.158;2023-12-20T02:00:33;8.80;99.90
3644;DHT22;1838;50.742;7.158;2023-12-20T02:03:01;8.80;99.90
3644;DHT22;1838;50.742;7.158;2023-12-20T02:05:27;8.70;99.90
3644;DHT22;1838;50.742;7.158;2023-12-20T02:07:53;8.70;99.90
3644;DHT22;1838;50.742;7.158;2023-12-20T02:10:19;8.70;99.90
3644;DHT22;1838;50.742;7.158;2023-12-20T02:12:44;8.70;99.90
3644;DHT22;1838;50.742;7.158;2023-12-20T02:15:10;8.70;99.90
3644;DHT22;1838;50.742;7.158;2023-12-20T02:17:36;8.60;99.90
3644;DHT22;1838;50.742;7.158;2023-12-20T02:20:04;8.60;99.90
3644;DHT22;1838;50.742;7.158;2023-12-20T02:22:31;8.50;99.90
3644;DHT22;1838;50.742;7.158;2023-12-20T02:24:56;8.50;99.90
3644;DHT22;1838;50.742;7.158;2023-12-20T02:27:23;8.50;99.90
3644;DHT22;1838;50.742;7.158;2023-12-20T02:29:49;8.50;99.90
3644;DHT22;1838;50.742;7.158;2023-12-20T02:32:16;8.40;99.90
3644;DHT22;1838;50.742;7.158;2023-12-20T02:34:42;8.30;99.90
3644;DHT22;1838;50.742;7.158;2023-12-20T02:37:08;8.10;99.90
3644;DHT22;1838;50.742;7.158;2023-12-20T02:39:33;8.10;99.90
3644;DHT22;1838;50.742;7.158;2023-12-20T02:41:59;8.00;99.90
3644;DHT22;1838;50.742;7.158;2023-12-20T02:44:24;7.90;99.90
3644;DHT22;1838;50.742;7.158;2023-12-20T02:46:50;7.80;99.90
3644;DHT22;1838;50.742;7.158;2023-12-20T02:49:15;7.70;99.90
3644;DHT22;1838;50.742;7.158;2023-12-20T02:51:41;7.60;99.90
3644;DHT22;1838;50.742;7.158;2023-12-20T02:54:07;7.60;99.90
3644;DHT22;1838;50.742;7.158;2023-12-20T02:56:33;7.60;99.90
3644;DHT22;1838;50.742;7.158;2023-12-20T02:58:58;7.50;99.90
3644;DHT22;1838;50.742;7.158;2023-12-20T03:01:24;7.50;99.90
3644;DHT22;1838;50.742;7.158;2023-12-20T03:03:50;7.50;99.90
3644;DHT22;1838;50.742;7.158;2023-12-20T03:06:18;7.50;99.90
3644;DHT22;1838;50.742;7.158;2023-12-20T03:08:45;7.50;99.90
3644;DHT22;1838;50.742;7.158;2023-12-20T03:11:10;7.60;99.90
3644;DHT22;1838;50.742;7.158;2023-12-20T03:13:36;7.50;99.90
3644;DHT22;1838;50.742;7.158;2023-12-20T03:16:07;7.50;99.90
3644;DHT22;1838;50.742;7.158;2023-12-20T03:18:33;7.50;99.90
3644;DHT22;1838;50.742;7.158;2023-12-20T03:20:58;7.50;99.90
3644;DHT22;1838;50.742;7.158;2023-12-20T03:23:24;7.50;99.90
3644;DHT22;1838;50.742;7.158;2023-12-20T03:25:49;7.50;99.90
3644;DHT22;1838;50.742;7.158;2023-12-20T03:28:15;7.60;99.90
3644;DHT22;1838;50.742;7.158;2023-12-20T03:30:41;7.60;99.90
3644;DHT22;1838;50.742;7.158;2023-12-20T03:33:06;7.60;99.90
3644;DHT22;1838;50.742;7.158;2023-12-20T03:35:33;7.50;99.90
3644;DHT22;1838;50.742;7.158;2023-12-20T03:37:58;7.50;99.90
3644;DHT22;1838;50.742;7.158;2023-12-20T03:40:25;7.50;99.90
3644;DHT22;1838;50.742;7.158;2023-12-20T03:42:51;7.50;99.90
3644;DHT22;1838;50.742;7.158;2023-12-20T03:45:16;7.50;99.90
3644;DHT22;1838;50.742;7.158;2023-12-20T03:47:42;7.50;99.90
3644;DHT22;1838;50.742;7.158;2023-12-20T03:50:08;7.50;99.90
3644;DHT22;1838;50.742;7.158;2023-12-20T03:52:33;7.50;99.90
3644;DHT22;1838;50.742;7.158;2023-12-20T03:54:59;7.50;99.90
3644;DHT22;1838;50.742;7.158;2023-12-20T03:57:24;7.60;99.90
3644;DHT22;1838;50.742;7.158;2023-12-20T03:59:50;7.50;99.90
3644;DHT22;1838;50.742;7.158;2023-12-20T04:02:15;7.60;99.90
3644;DHT22;1838;50.742;7.158;2023-12-20T04:04:43;7.50;99.90
3644;DHT22;1838;50.742;7.158;2023-12-20T04:07:08;7.50;99.90
3644;DHT22;1838;50.742;7.158;2023-12-20T04:09:34;7.50;99.90
3644;DHT22;1838;50.742;7.158;2023-12-20T04:11:59;7.50;99.90
3644;DHT22;1838;50.742;7.158;2023-12-20T04:14:25;7.50;99.90
3644;DHT22;1838;50.742;7.158;2023-12-20T04:16:51;7.50;99.90
3644;DHT22;1838;50.742;7.158;2023-12-20T04:19:16;7.50;99.90
3644;DHT22;1838;50.742;7.158;2023-12-20T04:21:42;7.50;99.90
3644;DHT22;1838;50.742;7.158;2023-12-20T04:24:07;7.50;99.90
3644;DHT22;1838;50.742;7.158;2023-12-20T04:26:33;7.60;99.90
3644;DHT22;1838;50.742;7.158;2023-12-20T04:28:59;7.50;99.90
3644;DHT22;1838;50.742;7.158;2023-12-20T04:31:24;7.60;99.90
3644;DHT22;1838;50.742;7.158;2023-12-20T04:33:50;7.50;99.90
3644;DHT22;1838;50.742;7.158;2023-12-20T04:36:15;7.60;99.90
3644;DHT22;1838;50.742;7.158;2023-12-20T04:38:41;7.60;99.90
3644;DHT22;1838;50.742;7.158;2023-12-20T04:41:06;7.60;99.90
3644;DHT22;1838;50.742;7.158;2023-12-20T04:43:32;7.60;99.90
3644;DHT22;1838;50.742;7.158;2023-12-20T04:45:58;7.50;99.90
3644;DHT22;1838;50.742;7.158;2023-12-20T04:48:23;7.60;99.90
3644;DHT22;1838;50.742;7.158;2023-12-20T04:50:49;7.60;99.90
3644;DHT22;1838;50.742;7.158;2023-12-20T04:53:14;7.50;99.90
3644;DHT22;1838;50.742;7.158;2023-12-20T04:55:39;7.60;99.90
3644;DHT22;1838;50.742;7.158;2023-12-20T04:58:05;7.50;99.90
3644;DHT22;1838;50.742;7.158;2023-12-20T05:00:30;7.60;99.90
3644;DHT22;1838;50.742;7.158;2023-12-20T05:02:56;7.60;99.90
3644;DHT22;1838;50.742;7.158;2023-12-20T05:05:22;7.60;99.90
3644;DHT22;1838;50.742;7.158;2023-12-20T05:07:47;7.60;99.90
3644;DHT22;1838;50.742;7.158;2023-12-20T05:10:13;7.50;99.90
3644;DHT22;1838;50.742;7.158;2023-12-20T05:12:38;7.50;99.90
3644;DHT22;1838;50.742;7.158;2023-12-20T05:15:06;7.50;99.90
3644;DHT22;1838;50.742;7.158;2023-12-20T05:17:32;7.50;99.90
3644;DHT22;1838;50.742;7.158;2023-12-20T05:19:57;7.50;99.90
3644;DHT22;1838;50.742;7.158;2023-12-20T05:22:22;7.40;99.90
3644;DHT22;1838;50.742;7.158;2023-12-20T05:24:48;7.40;99.90
3644;DHT22;1838;50.742;7.158;2023-12-20T05:27:14;7.40;99.90
3644;DHT22;1838;50.742;7.158;2023-12-20T05:29:40;7.30;99.90
3644;DHT22;1838;50.742;7.158;2023-12-20T05:32:05;7.30;99.90
3644;DHT22;1838;50.742;7.158;2023-12-20T05:34:31;7.20;99.90
3644;DHT22;1838;50.742;7.158;2023-12-20T05:36:58;7.20;99.90
3644;DHT22;1838;50.742;7.158;2023-12-20T05:39:23;7.20;99.90
3644;DHT22;1838;50.742;7.158;2023-12-20T05:41:49;7.10;99.90
3644;DHT22;1838;50.742;7.158;2023-12-20T05:44:14;7.10;99.90
3644;DHT22;1838;50.742;7.158;2023-12-20T05:46:40;7.10;99.90
3644;DHT22;1838;50.742;7.158;2023-12-20T05:49:06;7.20;99.90
3644;DHT22;1838;50.742;7.158;2023-12-20T05:51:32;7.20;99.90
3644;DHT22;1838;50.742;7.158;2023-12-20T05:53:58;7.10;99.90
3644;DHT22;1838;50.742;7.158;2023-12-20T05:56:24;7.20;99.90
3644;DHT22;1838;50.742;7.158;2023-12-20T05:58:49;7.20;99.90
3644;DHT22;1838;50.742;7.158;2023-12-20T06:01:17;7.20;99.90
3644;DHT22;1838;50.742;7.158;2023-12-20T06:03:43;7.20;99.90
3644;DHT22;1838;50.742;7.158;2023-12-20T06:06:09;7.20;99.90
3644;DHT22;1838;50.742;7.158;2023-12-20T06:08:35;7.30;99.90
3644;DHT22;1838;50.742;7.158;2023-12-20T06:11:01;7.30;99.90
3644;DHT22;1838;50.742;7.158;2023-12-20T06:13:26;7.30;99.90
3644;DHT22;1838;50.742;7.158;2023-12-20T06:15:54;7.30;99.90
3644;DHT22;1838;50.742;7.158;2023-12-20T06:18:19;7.20;99.90
3644;DHT22;1838;50.742;7.158;2023-12-20T06:20:45;7.20;99.90
3644;DHT22;1838;50.742;7.158;2023-12-20T06:23:10;7.20;99.90
3644;DHT22;1838;50.742;7.158;2023-12-20T06:25:36;7.20;99.90
3644;DHT22;1838;50.742;7.158;2023-12-20T06:28:02;7.30;99.90
3644;DHT22;1838;50.742;7.158;2023-12-20T06:30:27;7.30;99.90
3644;DHT22;1838;50.742;7.158;2023-12-20T06:32:54;7.30;99.90
3644;DHT22;1838;50.742;7.158;2023-12-20T06:35:20;7.30;99.90
3644;DHT22;1838;50.742;7.158;2023-12-20T06:37:45;7.30;99.90
3644;DHT22;1838;50.742;7.158;2023-12-20T06:40:11;7.30;99.90
3644;DHT22;1838;50.742;7.158;2023-12-20T06:42:37;7.30;99.90
3644;DHT22;1838;50.742;7.158;2023-12-20T06:45:03;7.30;99.90
3644;DHT22;1838;50.742;7.158;2023-12-20T06:47:29;7.30;99.90
3644;DHT22;1838;50.742;7.158;2023-12-20T06:49:55;7.20;99.90
3644;DHT22;1838;50.742;7.158;2023-12-20T06:52:20;7.30;99.90
3644;DHT22;1838;50.742;7.158;2023-12-20T06:54:46;7.30;99.90
3644;DHT22;1838;50.742;7.158;2023-12-20T06:57:11;7.30;99.90
3644;DHT22;1838;50.742;7.158;2023-12-20T06:59:43;7.30;99.90
3644;DHT22;1838;50.742;7.158;2023-12-20T07:02:09;7.30;99.90
3644;DHT22;1838;50.742;7.158;2023-12-20T07:04:39;7.30;99.90
3644;DHT22;1838;50.742;7.158;2023-12-20T07:07:05;7.30;99.90
3644;DHT22;1838;50.742;7.158;2023-12-20T07:09:30;7.30;99.90
3644;DHT22;1838;50.742;7.158;2023-12-20T07:11:56;7.30;99.90
3644;DHT22;1838;50.742;7.158;2023-12-20T07:14:21;7.30;99.90
3644;DHT22;1838;50.742;7.158;2023-12-20T07:16:47;7.30;99.90
3644;DHT22;1838;50.742;7.158;2023-12-20T07:19:12;7.30;99.90
3644;DHT22;1838;50.742;7.158;2023-12-20T07:21:38;7.30;99.90
3644;DHT22;1838;50.742;7.158;2023-12-20T07:24:04;7.30;99.90
3644;DHT22;1838;50.742;7.158;2023-12-20T07:26:29;7.30;99.90
3644;DHT22;1838;50.742;7.158;2023-12-20T07:28:55;7.30;99.90
3644;DHT22;1838;50.742;7.158;2023-12-20T07:31:20;7.30;99.90
3644;DHT22;1838;50.742;7.158;2023-12-20T07:33:46;7.30;99.90
3644;DHT22;1838;50.742;7.158;2023-12-20T07:36:12;7.30;99.90
3644;DHT22;1838;50.742;7.158;2023-12-20T07:38:37;7.30;99.90
3644;DHT22;1838;50.742;7.158;2023-12-20T07:41:03;7.30;99.90
3644;DHT22;1838;50.742;7.158;2023-12-20T07:43:28;7.30;99.90
3644;DHT22;1838;50.742;7.158;2023-12-20T07:45:54;7.30;99.90
3644;DHT22;1838;50.742;7.158;2023-12-20T07:48:19;7.30;99.90
3644;DHT22;1838;50.742;7.158;2023-12-20T07:50:45;7.30;99.90
3644;DHT22;1838;50.742;7.158;2023-12-20T07:53:10;7.30;99.90
3644;DHT22;1838;50.742;7.158;2023-12-20T07:55:36;7.20;99.90
3644;DHT22;1838;50.742;7.158;2023-12-20T07:58:01;7.30;99.90
3644;DHT22;1838;50.742;7.158;2023-12-20T08:00:27;7.30;99.90
3644;DHT22;1838;50.742;7.158;2023-12-20T08:02:53;7.40;99.90
3644;DHT22;1838;50.742;7.158;2023-12-20T08:05:18;7.40;99.90
3644;DHT22;1838;50.742;7.158;2023-12-20T08:07:44;7.50;99.90
3644;DHT22;1838;50.742;7.158;2023-12-20T08:10:10;7.50;99.90
3644;DHT22;1838;50.742;7.158;2023-12-20T08:12:35;7.50;99.90
3644;DHT22;1838;50.742;7.158;2023-12-20T08:15:01;7.50;99.90
3644;DHT22;1838;50.742;7.158;2023-12-20T08:17:27;7.60;99.90
3644;DHT22;1838;50.742;7.158;2023-12-20T08:19:52;7.60;99.90
3644;DHT22;1838;50.742;7.158;2023-12-20T08:22:18;7.60;99.90
3644;DHT22;1838;50.742;7.158;2023-12-20T08:24:44;7.60;99.90
3644;DHT22;1838;50.742;7.158;2023-12-20T08:27:09;7.60;99.90
3644;DHT22;1838;50.742;7.158;2023-12-20T08:29:35;7.60;99.90
3644;DHT22;1838;50.742;7.158;2023-12-20T08:32:01;7.60;99.90
3644;DHT22;1838;50.742;7.158;2023-12-20T08:34:27;7.60;99.90
3644;DHT22;1838;50.742;7.158;2023-12-20T08:36:53;7.60;99.90
3644;DHT22;1838;50.742;7.158;2023-12-20T08:39:18;7.60;99.90
3644;DHT22;1838;50.742;7.158;2023-12-20T08:41:44;7.60;99.90
3644;DHT22;1838;50.742;7.158;2023-12-20T08:44:09;7.60;99.90
3644;DHT22;1838;50.742;7.158;2023-12-20T08:46:35;7.60;99.90
3644;DHT22;1838;50.742;7.158;2023-12-20T08:49:01;7.70;99.90
3644;DHT22;1838;50.742;7.158;2023-12-20T08:51:27;7.70;99.90
3644;DHT22;1838;50.742;7.158;2023-12-20T08:53:53;7.80;99.90
3644;DHT22;1838;50.742;7.158;2023-12-20T08:56:19;7.80;99.90
3644;DHT22;1838;50.742;7.158;2023-12-20T08:58:45;7.80;99.90
3644;DHT22;1838;50.742;7.158;2023-12-20T09:01:12;7.80;99.90
3644;DHT22;1838;50.742;7.158;2023-12-20T09:03:37;7.80;99.90
3644;DHT22;1838;50.742;7.158;2023-12-20T09:06:03;7.80;99.90
3644;DHT22;1838;50.742;7.158;2023-12-20T09:08:29;7.80;99.90
3644;DHT22;1838;50.742;7.158;2023-12-20T09:10:54;7.80;99.90
3644;DHT22;1838;50.742;7.158;2023-12-20T09:13:20;7.90;99.90
3644;DHT22;1838;50.742;7.158;2023-12-20T09:15:46;7.90;99.90
3644;DHT22;1838;50.742;7.158;2023-12-20T09:18:12;7.90;99.90
3644;DHT22;1838;50.742;7.158;2023-12-20T09:20:37;7.90;99.90
3644;DHT22;1838;50.742;7.158;2023-12-20T09:23:03;8.00;99.90
3644;DHT22;1838;50.742;7.158;2023-12-20T09:25:28;7.90;99.90
3644;DHT22;1838;50.742;7.158;2023-12-20T09:27:55;8.00;99.90
3644;DHT22;1838;50.742;7.158;2023-12-20T09:30:21;8.10;99.90
3644;DHT22;1838;50.742;7.158;2023-12-20T09:32:46;8.00;99.90
3644;DHT22;1838;50.742;7.158;2023-12-20T09:35:11;8.10;99.90
3644;DHT22;1838;50.742;7.158;2023-12-20T09:37:37;8.10;99.90
3644;DHT22;1838;50.742;7.158;2023-12-20T09:40:03;8.10;99.90
3644;DHT22;1838;50.742;7.158;2023-12-20T09:42:44;8.20;99.90
3644;DHT22;1838;50.742;7.158;2023-12-20T09:45:13;8.20;99.90
3644;DHT22;1838;50.742;7.158;2023-12-20T09:47:40;8.30;99.90
3644;DHT22;1838;50.742;7.158;2023-12-20T09:50:07;8.30;99.90
3644;DHT22;1838;50.742;7.158;2023-12-20T09:52:34;8.30;99.90
3644;DHT22;1838;50.742;7.158;2023-12-20T09:55:01;8.30;99.90
3644;DHT22;1838;50.742;7.158;2023-12-20T09:57:27;8.20;99.90
3644;DHT22;1838;50.742;7.158;2023-12-20T09:59:52;8.20;99.90
3644;DHT22;1838;50.742;7.158;2023-12-20T10:02:21;8.20;99.90
3644;DHT22;1838;50.742;7.158;2023-12-20T10:04:48;8.20;99.90
3644;DHT22;1838;50.742;7.158;2023-12-20T10:07:14;8.20;99.90
3644;DHT22;1838;50.742;7.158;2023-12-20T10:09:40;8.20;99.90
3644;DHT22;1838;50.742;7.158;2023-12-20T10:12:07;8.20;99.90
3644;DHT22;1838;50.742;7.158;2023-12-20T10:14:33;8.20;99.90
3644;DHT22;1838;50.742;7.158;2023-12-20T10:17:05;8.20;99.90
3644;DHT22;1838;50.742;7.158;2023-12-20T10:19:31;8.20;99.90
3644;DHT22;1838;50.742;7.158;2023-12-20T10:22:00;8.20;99.90
3644;DHT22;1838;50.742;7.158;2023-12-20T10:24:28;8.20;99.90
3644;DHT22;1838;50.742;7.158;2023-12-20T10:27:02;8.20;99.90
3644;DHT22;1838;50.742;7.158;2023-12-20T10:29:38;8.20;99.90
3644;DHT22;1838;50.742;7.158;2023-12-20T10:34:47;8.20;99.90
3644;DHT22;1838;50.742;7.158;2023-12-20T10:37:12;8.20;99.90
3644;DHT22;1838;50.742;7.158;2023-12-20T10:39:39;8.20;99.90
3644;DHT22;1838;50.742;7.158;2023-12-20T10:42:05;8.20;99.90
3644;DHT22;1838;50.742;7.158;2023-12-20T10:44:31;8.30;99.90
3644;DHT22;1838;50.742;7.158;2023-12-20T10:46:57;8.30;99.90
3644;DHT22;1838;50.742;7.158;2023-12-20T10:49:25;8.30;99.90
3644;DHT22;1838;50.742;7.158;2023-12-20T10:51:53;8.20;99.90
3644;DHT22;1838;50.742;7.158;2023-12-20T10:54:19;8.30;99.90
3644;DHT22;1838;50.742;7.158;2023-12-20T10:56:45;8.30;99.90
3644;DHT22;1838;50.742;7.158;2023-12-20T10:59:12;8.30;99.90
3644;DHT22;1838;50.742;7.158;2023-12-20T11:01:42;8.30;99.90
3644;DHT22;1838;50.742;7.158;2023-12-20T11:04:09;8.40;99.90
3644;DHT22;1838;50.742;7.158;2023-12-20T11:06:43;8.40;99.90
3644;DHT22;1838;50.742;7.158;2023-12-20T11:09:26;8.40;99.90
3644;DHT22;1838;50.742;7.158;2023-12-20T11:12:10;8.40;99.90
3644;DHT22;1838;50.742;7.158;2023-12-20T11:14:50;8.40;99.90
3644;DHT22;1838;50.742;7.158;2023-12-20T11:17:16;8.40;99.90
3644;DHT22;1838;50.742;7.158;2023-12-20T11:22:29;8.50;99.90
3644;DHT22;1838;50.742;7.158;2023-12-20T11:25:00;8.50;99.90
3644;DHT22;1838;50.742;7.158;2023-12-20T11:27:27;8.50;99.90
3644;DHT22;1838;50.742;7.158;2023-12-20T11:29:55;8.50;99.90
3644;DHT22;1838;50.742;7.158;2023-12-20T11:34:55;8.50;99.90
3644;DHT22;1838;50.742;7.158;2023-12-20T11:37:21;8.50;99.90
3644;DHT22;1838;50.742;7.158;2023-12-20T11:39:55;8.50;99.90
3644;DHT22;1838;50.742;7.158;2023-12-20T11:42:21;8.50;99.90
3644;DHT22;1838;50.742;7.158;2023-12-20T11:44:47;8.40;99.90
3644;DHT22;1838;50.742;7.158;2023-12-20T11:47:13;8.40;99.90
3644;DHT22;1838;50.742;7.158;2023-12-20T11:49:39;8.40;99.90
3644;DHT22;1838;50.742;7.158;2023-12-20T11:52:05;8.40;99.90
3644;DHT22;1838;50.742;7.158;2023-12-20T11:54:31;8.50;99.90
3644;DHT22;1838;50.742;7.158;2023-12-20T11:56:56;8.50;99.90
3644;DHT22;1838;50.742;7.158;2023-12-20T11:59:23;8.50;99.90
3644;DHT22;1838;50.742;7.158;2023-12-20T12:01:49;8.50;99.90
3644;DHT22;1838;50.742;7.158;2023-12-20T12:04:15;8.60;99.90
3644;DHT22;1838;50.742;7.158;2023-12-20T12:06:43;8.60;99.90
3644;DHT22;1838;50.742;7.158;2023-12-20T12:09:08;8.60;99.90
3644;DHT22;1838;50.742;7.158;2023-12-20T12:11:34;8.70;99.90
3644;DHT22;1838;50.742;7.158;2023-12-20T12:14:00;8.80;99.90
3644;DHT22;1838;50.742;7.158;2023-12-20T12:16:26;8.80;99.90
3644;DHT22;1838;50.742;7.158;2023-12-20T12:18:56;8.90;99.90
3644;DHT22;1838;50.742;7.158;2023-12-20T12:21:22;8.90;99.90
3644;DHT22;1838;50.742;7.158;2023-12-20T12:23:48;9.00;99.90
3644;DHT22;1838;50.742;7.158;2023-12-20T12:26:13;9.00;99.90
3644;DHT22;1838;50.742;7.158;2023-12-20T12:28:42;9.10;99.90
3644;DHT22;1838;50.742;7.158;2023-12-20T12:31:09;9.10;99.90
3644;DHT22;1838;50.742;7.158;2023-12-20T12:33:38;9.20;99.90
3644;DHT22;1838;50.742;7.158;2023-12-20T12:36:04;9.20;99.90
3644;DHT22;1838;50.742;7.158;2023-12-20T12:38:32;9.20;99.90
3644;DHT22;1838;50.742;7.158;2023-12-20T12:40:58;9.20;99.90
3644;DHT22;1838;50.742;7.158;2023-12-20T12:43:24;9.10;99.90
3644;DHT22;1838;50.742;7.158;2023-12-20T12:45:49;9.10;99.90
3644;DHT22;1838;50.742;7.158;2023-12-20T12:48:15;9.00;99.90
3644;DHT22;1838;50.742;7.158;2023-12-20T12:50:40;9.10;99.90
3644;DHT22;1838;50.742;7.158;2023-12-20T12:53:06;9.10;99.90
3644;DHT22;1838;50.742;7.158;2023-12-20T12:55:32;9.10;99.90
3644;DHT22;1838;50.742;7.158;2023-12-20T12:57:58;9.10;99.90
3644;DHT22;1838;50.742;7.158;2023-12-20T13:00:23;9.10;99.90
3644;DHT22;1838;50.742;7.158;2023-12-20T13:02:50;9.10;99.90
3644;DHT22;1838;50.742;7.158;2023-12-20T13:05:15;9.10;99.90
3644;DHT22;1838;50.742;7.158;2023-12-20T13:07:41;9.10;99.90
3644;DHT22;1838;50.742;7.158;2023-12-20T13:10:10;9.10;99.90
3644;DHT22;1838;50.742;7.158;2023-12-20T13:12:36;9.00;99.90
3644;DHT22;1838;50.742;7.158;2023-12-20T13:15:01;9.00;99.90
3644;DHT22;1838;50.742;7.158;2023-12-20T13:17:29;9.00;99.90
3644;DHT22;1838;50.742;7.158;2023-12-20T13:19:55;9.00;99.90
3644;DHT22;1838;50.742;7.158;2023-12-20T13:22:20;8.90;99.90
3644;DHT22;1838;50.742;7.158;2023-12-20T13:24:46;8.90;99.90
3644;DHT22;1838;50.742;7.158;2023-12-20T13:27:11;8.90;99.90
3644;DHT22;1838;50.742;7.158;2023-12-20T13:29:37;8.90;99.90
3644;DHT22;1838;50.742;7.158;2023-12-20T13:32:02;8.90;99.90
3644;DHT22;1838;50.742;7.158;2023-12-20T13:34:29;8.90;99.90
3644;DHT22;1838;50.742;7.158;2023-12-20T13:36:54;9.00;99.90
3644;DHT22;1838;50.742;7.158;2023-12-20T13:39:20;9.00;99.90
3644;DHT22;1838;50.742;7.158;2023-12-20T13:41:46;9.00;99.90
3644;DHT22;1838;50.742;7.158;2023-12-20T13:44:13;9.00;99.90
3644;DHT22;1838;50.742;7.158;2023-12-20T13:46:39;8.90;99.90
3644;DHT22;1838;50.742;7.158;2023-12-20T13:49:05;8.80;99.90
3644;DHT22;1838;50.742;7.158;2023-12-20T13:51:30;8.80;99.90
3644;DHT22;1838;50.742;7.158;2023-12-20T13:53:56;8.80;99.90
3644;DHT22;1838;50.742;7.158;2023-12-20T13:56:22;8.80;99.90
3644;DHT22;1838;50.742;7.158;2023-12-20T13:58:48;8.80;99.90
3644;DHT22;1838;50.742;7.158;2023-12-20T14:01:15;8.70;99.90
3644;DHT22;1838;50.742;7.158;2023-12-20T14:03:40;8.70;99.90
3644;DHT22;1838;50.742;7.158;2023-12-20T14:06:06;8.70;99.90
3644;DHT22;1838;50.742;7.158;2023-12-20T14:08:32;8.60;99.90
3644;DHT22;1838;50.742;7.158;2023-12-20T14:10:57;8.60;99.90
3644;DHT22;1838;50.742;7.158;2023-12-20T14:13:23;8.60;99.90
3644;DHT22;1838;50.742;7.158;2023-12-20T14:15:49;8.60;99.90
3644;DHT22;1838;50.742;7.158;2023-12-20T14:18:14;8.70;99.90
3644;DHT22;1838;50.742;7.158;2023-12-20T14:20:41;8.70;99.90
3644;DHT22;1838;50.742;7.158;2023-12-20T14:23:08;8.60;99.90
3644;DHT22;1838;50.742;7.158;2023-12-20T14:25:37;8.60;99.90
3644;DHT22;1838;50.742;7.158;2023-12-20T14:28:04;8.60;99.90
3644;DHT22;1838;50.742;7.158;2023-12-20T14:30:29;8.60;99.90
3644;DHT22;1838;50.742;7.158;2023-12-20T14:32:55;8.50;99.90
3644;DHT22;1838;50.742;7.158;2023-12-20T14:35:20;8.40;99.90
3644;DHT22;1838;50.742;7.158;2023-12-20T14:37:46;8.50;99.90
3644;DHT22;1838;50.742;7.158;2023-12-20T14:40:11;8.40;99.90
3644;DHT22;1838;50.742;7.158;2023-12-20T14:42:44;8.50;99.90
3644;DHT22;1838;50.742;7.158;2023-12-20T14:45:10;8.40;99.90
3644;DHT22;1838;50.742;7.158;2023-12-20T14:47:36;8.40;99.90
3644;DHT22;1838;50.742;7.158;2023-12-20T14:50:05;8.50;99.90
3644;DHT22;1838;50.742;7.158;2023-12-20T14:52:32;8.50;99.90
3644;DHT22;1838;50.742;7.158;2023-12-20T14:54:59;8.50;99.90
3644;DHT22;1838;50.742;7.158;2023-12-20T14:57:25;8.40;99.90
3644;DHT22;1838;50.742;7.158;2023-12-20T14:59:51;8.40;99.90
3644;DHT22;1838;50.742;7.158;2023-12-20T15:02:17;8.40;99.90
3644;DHT22;1838;50.742;7.158;2023-12-20T15:04:43;8.50;99.90
3644;DHT22;1838;50.742;7.158;2023-12-20T15:07:08;8.50;99.90
3644;DHT22;1838;50.742;7.158;2023-12-20T15:09:34;8.50;99.90
3644;DHT22;1838;50.742;7.158;2023-12-20T15:11:59;8.60;99.90
3644;DHT22;1838;50.742;7.158;2023-12-20T15:14:26;8.60;99.90
3644;DHT22;1838;50.742;7.158;2023-12-20T15:16:52;8.60;99.90
3644;DHT22;1838;50.742;7.158;2023-12-20T15:19:18;8.70;99.90
3644;DHT22;1838;50.742;7.158;2023-12-20T15:21:43;8.70;99.90
3644;DHT22;1838;50.742;7.158;2023-12-20T15:24:09;8.70;99.90
3644;DHT22;1838;50.742;7.158;2023-12-20T15:26:43;8.60;99.90
3644;DHT22;1838;50.742;7.158;2023-12-20T15:29:09;8.70;99.90
3644;DHT22;1838;50.742;7.158;2023-12-20T15:31:37;8.60;99.90
3644;DHT22;1838;50.742;7.158;2023-12-20T15:34:08;8.70;99.90
3644;DHT22;1838;50.742;7.158;2023-12-20T15:36:33;8.70;99.90
3644;DHT22;1838;50.742;7.158;2023-12-20T15:38:59;8.70;99.90
3644;DHT22;1838;50.742;7.158;2023-12-20T15:41:24;8.70;99.90
3644;DHT22;1838;50.742;7.158;2023-12-20T15:43:50;8.70;99.90
3644;DHT22;1838;50.742;7.158;2023-12-20T15:46:15;8.70;99.90
3644;DHT22;1838;50.742;7.158;2023-12-20T15:48:41;8.70;99.90
3644;DHT22;1838;50.742;7.158;2023-12-20T15:51:08;8.60;99.90
3644;DHT22;1838;50.742;7.158;2023-12-20T15:53:34;8.60;99.90
3644;DHT22;1838;50.742;7.158;2023-12-20T15:56:00;8.60;99.90
3644;DHT22;1838;50.742;7.158;2023-12-20T15:58:25;8.70;99.90
3644;DHT22;1838;50.742;7.158;2023-12-20T16:00:52;8.60;99.90
3644;DHT22;1838;50.742;7.158;2023-12-20T16:03:18;8.60;99.90
3644;DHT22;1838;50.742;7.158;2023-12-20T16:05:43;8.60;99.90
3644;DHT22;1838;50.742;7.158;2023-12-20T16:08:09;8.60;99.90
3644;DHT22;1838;50.742;7.158;2023-12-20T16:10:34;8.60;99.90
3644;DHT22;1838;50.742;7.158;2023-12-20T16:13:00;8.60;99.90
3644;DHT22;1838;50.742;7.158;2023-12-20T16:15:25;8.60;99.90
3644;DHT22;1838;50.742;7.158;2023-12-20T16:17:51;8.60;99.90